Portada
METAR-TAF:

METAR-TAF

Aeropuertos :

Aeropuerto Almirante Padilla

Riohacha, Colombia

latitud: 11-32N, longitud: 072-56W, altitud: 4 m

Observación

El informe se hizo hace 16 horas y 48 minutos, a las 23:00 UTC
Viento 5 kt del oeste-noroeste
Temperatura 30°C
Humedad 75%
Presión 1008 hPa
Visibilidad 10 km o más
Nubes dispersas a una altura de 2000 ft
Nubes dispersas a una altura de 20000 ft

METAR: SKRH 202300Z 29005KT 9999 SCT020 SCT200 30/25 A2978

Hora: 10:48 (15:48 UTC)


TAF: falta

Observaciones y pronósticos meteorológicos de más de 4000 aeropuertos (mensajes METAR y TAF).

Los puntos amarillos y rojos representan las estaciones disponibles.

Ponga el ratón en el punto deseado para ver el nombre de la estación.

Haga clic para ver las observaciones y los pronósticos meteorológicos.

Para cambiar el mapa : haga clic en los botones verdes con una cruz de color negro para hacer un zoom, en el botón verde con un guión para alejar o en las flechas verdes para mapas adyacentes.


METAR-TAF: